Lodi, Arkansas
Current Conditions -  °F | °C
As of 12:53 AM on Monday 22 Dec 2014 (Local Time) from KMWT Reporting Station
Haze Haze  
Wind Chill: 47°   Ceiling: 1300
Heat Index: 49°   Visibility: 4mi
Dew Point: 45°   Wind: 5mph
Humidity: 86%   Direction: 140°SE
Pressure: 29.77"   Gusts: NA
Location:  34.3099°N, 93.5952°W
Report Text: KMWT 220653Z AUTO 14004KT 4SM BR OVC013 09/07 A2977 RMK AO2 SLP085 T00940072
Loading
Personal Weather Stations






























Interactive Weather Map New forecast layout! Learn more

10-Day Weather Forecast

Advertisements
Track Severe Weather on mobile